createdAt,value
2023-01-08T00:02:45.204Z,53.93
2023-01-08T00:07:48.510Z,73.95
2023-01-08T00:12:51.787Z,214.00
2023-01-08T00:17:56.438Z,167.38
2023-01-08T00:22:59.710Z,143.73
2023-01-08T00:28:02.955Z,185.47
2023-01-08T00:33:07.888Z,72.45
2023-01-08T00:38:11.773Z,82.90
2023-01-08T00:43:15.041Z,124.43
2023-01-08T00:48:19.697Z,50.90
2023-01-08T00:53:23.788Z,158.23
2023-01-08T00:58:27.011Z,170.07
2023-01-08T01:03:32.534Z,89.90
2023-01-08T01:08:35.901Z,107.80
2023-01-08T01:13:39.199Z,113.83
2023-01-08T01:18:44.248Z,80.00
2023-01-08T01:23:47.519Z,83.73
2023-01-08T01:28:52.543Z,79.20
2023-01-08T01:33:57.383Z,86.93
2023-01-08T01:39:00.661Z,62.13
2023-01-08T01:44:38.992Z,90.18
2023-01-08T01:49:55.048Z,58.20
2023-01-08T01:55:01.041Z,83.10
2023-01-08T02:00:07.171Z,74.97
2023-01-08T02:05:16.664Z,34.33
2023-01-08T02:10:30.370Z,42.60
2023-01-08T02:15:40.020Z,81.85
2023-01-08T02:20:48.869Z,54.40
2023-01-08T02:26:16.946Z,44.20
2023-01-08T02:31:22.663Z,33.93
2023-01-08T02:36:33.632Z,47.70
2023-01-08T02:41:53.120Z,51.75
2023-01-08T02:46:58.641Z,54.60
2023-01-08T02:52:04.280Z,78.13
2023-01-08T02:57:13.373Z,66.60
2023-01-08T03:02:17.517Z,74.83
2023-01-08T03:07:21.262Z,75.37
2023-01-08T03:12:31.877Z,137.43
2023-01-08T03:17:38.222Z,84.78
2023-01-08T03:22:43.883Z,130.63
2023-01-08T03:27:51.958Z,86.13
2023-01-08T03:32:57.003Z,82.57
2023-01-08T03:38:07.299Z,59.72
2023-01-08T03:43:12.277Z,82.60
2023-01-08T03:48:15.966Z,54.50
2023-01-08T03:53:19.322Z,70.05
2023-01-08T03:58:23.914Z,59.65
2023-01-08T04:03:27.234Z,69.40
2023-01-08T04:08:30.716Z,71.45
2023-01-08T04:13:37.780Z,64.10
2023-01-08T04:18:41.205Z,47.87
2023-01-08T04:23:44.504Z,52.38
2023-01-08T04:28:49.232Z,67.43
2023-01-08T04:33:52.539Z,31.35
2023-01-08T04:38:55.791Z,133.98
2023-01-08T04:44:00.525Z,103.63
2023-01-08T04:49:03.853Z,183.27
2023-01-08T04:54:07.199Z,99.32
2023-01-08T04:59:11.902Z,106.97
2023-01-08T05:04:15.190Z,65.50
2023-01-08T05:09:18.475Z,59.13
2023-01-08T05:14:23.127Z,60.65
2023-01-08T05:19:26.472Z,58.63
2023-01-08T05:24:29.794Z,69.75
2023-01-08T05:29:34.462Z,57.85
2023-01-08T05:34:37.847Z,69.80
2023-01-08T05:39:41.119Z,52.55
2023-01-08T05:44:45.795Z,62.28
2023-01-08T05:49:49.070Z,27.48
2023-01-08T05:54:52.521Z,31.67
2023-01-08T05:59:57.454Z,21.85
2023-01-08T06:05:00.749Z,26.43
2023-01-08T06:10:04.052Z,41.92
2023-01-08T06:15:11.463Z,38.85
2023-01-08T06:20:16.757Z,40.17
2023-01-08T06:25:20.137Z,40.20
2023-01-08T06:30:24.822Z,37.65
2023-01-08T06:35:28.708Z,39.47
2023-01-08T06:40:31.947Z,42.78
2023-01-08T06:45:36.578Z,55.63
2023-01-08T06:50:39.781Z,128.38
2023-01-08T06:55:42.984Z,106.40
2023-01-08T07:00:47.619Z,107.80
2023-01-08T07:05:50.999Z,53.85
2023-01-08T07:10:55.417Z,69.03
2023-01-08T07:16:00.048Z,77.43
2023-01-08T07:21:04.018Z,63.75
2023-01-08T07:26:08.560Z,94.20
2023-01-08T07:31:13.225Z,87.20
2023-01-08T07:36:16.792Z,73.13
2023-01-08T07:41:20.078Z,86.25
2023-01-08T07:46:24.801Z,75.10
2023-01-08T07:51:28.199Z,59.25
2023-01-08T07:56:31.496Z,79.32
2023-01-08T08:01:36.233Z,51.47
2023-01-08T08:06:39.669Z,45.33
2023-01-08T08:11:43.247Z,42.47
2023-01-08T08:16:47.893Z,47.78
2023-01-08T08:21:51.180Z,49.75
2023-01-08T08:26:54.583Z,44.92
2023-01-08T08:31:59.244Z,48.87
2023-01-08T08:37:02.573Z,49.88
2023-01-08T08:42:06.158Z,40.95
2023-01-08T08:47:10.966Z,46.92
2023-01-08T08:52:14.321Z,47.03
2023-01-08T08:57:17.693Z,39.20
2023-01-08T09:02:22.435Z,56.53
2023-01-08T09:07:25.799Z,45.45
2023-01-08T09:12:29.161Z,38.45
2023-01-08T09:17:34.019Z,44.33
2023-01-08T09:22:37.363Z,47.92
2023-01-08T09:27:40.695Z,67.43
2023-01-08T09:32:45.393Z,67.75
2023-01-08T09:37:52.146Z,60.83
2023-01-08T09:42:58.611Z,62.75
2023-01-08T09:48:07.027Z,46.95
2023-01-08T09:53:15.199Z,42.95
2023-01-08T09:58:29.321Z,62.95
2023-01-08T10:03:42.366Z,38.67
2023-01-08T10:13:57.243Z,57.83
2023-01-08T10:19:03.902Z,39.92
2023-01-08T10:24:08.051Z,53.90
2023-01-08T10:29:14.855Z,41.57
2023-01-08T10:34:29.872Z,42.13
2023-01-08T10:39:33.456Z,59.10
2023-01-08T10:44:37.720Z,30.15
2023-01-08T10:49:45.441Z,42.85
2023-01-08T10:54:48.659Z,33.00
2023-01-08T10:59:52.183Z,38.22
2023-01-08T11:04:57.096Z,59.53
2023-01-08T11:10:00.315Z,43.42
2023-01-08T11:15:04.633Z,32.10
2023-01-08T11:20:11.595Z,27.13
2023-01-08T11:25:18.015Z,33.07
2023-01-08T11:30:23.020Z,31.92
2023-01-08T11:35:30.178Z,29.40
2023-01-08T11:40:42.725Z,25.27
2023-01-08T11:46:00.419Z,22.07
2023-01-08T11:51:34.997Z,20.50
2023-01-08T11:56:54.199Z,19.83
2023-01-08T12:02:06.328Z,23.00
2023-01-08T12:07:20.261Z,26.60
2023-01-08T12:12:39.984Z,24.95
2023-01-08T12:18:02.792Z,26.33
2023-01-08T12:23:21.376Z,28.02
2023-01-08T12:28:37.436Z,24.70
2023-01-08T12:33:45.612Z,28.80
2023-01-08T12:38:56.075Z,26.77
2023-01-08T12:44:02.820Z,25.58
2023-01-08T12:49:09.078Z,28.40
2023-01-08T12:54:23.842Z,24.33
2023-01-08T12:59:40.107Z,25.48
2023-01-08T13:04:44.589Z,30.70
2023-01-08T13:09:56.119Z,27.90
2023-01-08T13:14:59.500Z,25.98
2023-01-08T13:20:06.829Z,26.10
2023-01-08T13:25:29.305Z,25.70
2023-01-08T13:30:39.473Z,22.52
2023-01-08T13:35:42.733Z,21.80
2023-01-08T13:41:25.169Z,22.43
2023-01-08T13:46:29.600Z,24.27
2023-01-08T13:51:42.909Z,24.98
2023-01-08T13:56:49.022Z,28.40
2023-01-08T14:01:56.095Z,28.17
2023-01-08T14:07:15.755Z,29.95
2023-01-08T14:12:22.637Z,29.30
2023-01-08T14:17:31.516Z,29.10
2023-01-08T14:22:36.596Z,29.73
2023-01-08T14:27:41.421Z,29.40
2023-01-08T14:32:45.343Z,26.63
2023-01-08T14:37:48.678Z,31.47
2023-01-08T14:42:53.737Z,30.63
2023-01-08T14:48:00.847Z,25.95
2023-01-08T14:53:09.074Z,25.48
2023-01-08T14:58:18.380Z,25.73
2023-01-08T15:03:34.656Z,26.58
2023-01-08T15:08:39.754Z,24.77
2023-01-08T15:13:48.483Z,26.05
2023-01-08T15:19:01.536Z,25.27
2023-01-08T15:24:06.805Z,24.38
2023-01-08T15:29:19.659Z,24.40
2023-01-08T15:34:23.043Z,22.13
2023-01-08T15:39:26.330Z,27.08
2023-01-08T15:44:30.943Z,28.17
2023-01-08T15:49:34.185Z,28.00
2023-01-08T15:54:39.235Z,30.92
2023-01-08T15:59:43.812Z,40.55
2023-01-08T16:04:52.240Z,38.37
2023-01-08T16:09:55.471Z,44.20
2023-01-08T16:15:00.091Z,45.70
2023-01-08T16:20:03.428Z,47.67
2023-01-08T16:25:09.341Z,48.83
2023-01-08T16:30:15.837Z,48.30
2023-01-08T16:35:19.269Z,47.17
2023-01-08T16:40:22.633Z,53.97
2023-01-08T16:45:27.251Z,53.03
2023-01-08T16:50:31.311Z,51.03
2023-01-08T16:55:34.727Z,52.65
2023-01-08T17:00:40.539Z,55.67
2023-01-08T17:05:43.792Z,55.63
2023-01-08T17:10:47.390Z,49.15
2023-01-08T17:15:53.201Z,48.50
2023-01-08T17:20:56.773Z,47.55
2023-01-08T17:26:04.167Z,53.20
2023-01-08T17:31:11.415Z,53.33
2023-01-08T17:36:16.369Z,48.17
2023-01-08T17:41:37.749Z,49.72
2023-01-08T17:46:45.380Z,49.20
2023-01-08T17:51:48.751Z,53.28
2023-01-08T17:56:53.707Z,54.60
2023-01-08T18:01:58.907Z,57.40
2023-01-08T18:07:02.474Z,61.42
2023-01-08T18:12:06.188Z,65.63
2023-01-08T18:17:10.858Z,66.43
2023-01-08T18:22:14.157Z,64.65
2023-01-08T18:27:17.436Z,68.57
2023-01-08T18:32:26.020Z,65.83
2023-01-08T18:37:29.269Z,64.07
2023-01-08T18:42:33.314Z,63.67
2023-01-08T18:47:38.553Z,61.90
2023-01-08T18:52:42.107Z,54.73
2023-01-08T18:57:45.604Z,59.35
2023-01-08T19:02:51.980Z,53.00
2023-01-08T19:07:55.393Z,51.90
2023-01-08T19:12:58.907Z,46.40
2023-01-08T19:18:04.976Z,46.33
2023-01-08T19:23:08.313Z,48.43
2023-01-08T19:28:11.588Z,46.65
2023-01-08T19:33:16.959Z,46.13
2023-01-08T19:38:21.194Z,48.95
2023-01-08T19:43:42.928Z,48.07
2023-01-08T19:48:47.619Z,48.78
2023-01-08T19:53:51.015Z,45.60
2023-01-08T19:58:55.898Z,45.58
2023-01-08T20:04:00.647Z,48.63
2023-01-08T20:09:04.324Z,50.90
2023-01-08T20:14:07.842Z,53.78
2023-01-08T20:19:12.676Z,53.65
2023-01-08T20:24:16.352Z,54.87
2023-01-08T20:29:19.755Z,57.38
2023-01-08T20:34:25.340Z,51.55
2023-01-08T20:39:28.922Z,55.25
2023-01-08T20:44:32.970Z,51.72
2023-01-08T20:49:37.947Z,43.47
2023-01-08T20:54:41.742Z,48.65
2023-01-08T20:59:45.014Z,54.50
2023-01-08T21:04:50.382Z,49.72
2023-01-08T21:09:53.693Z,55.47
2023-01-08T21:14:56.986Z,57.88
2023-01-08T21:20:01.833Z,54.63
2023-01-08T21:25:06.117Z,59.80
2023-01-08T21:30:10.842Z,63.20
2023-01-08T21:35:15.847Z,51.43
2023-01-08T21:40:19.552Z,54.77
2023-01-08T21:45:29.782Z,55.33
2023-01-08T21:50:34.797Z,50.47
2023-01-08T21:55:38.082Z,53.10
2023-01-08T22:00:41.496Z,51.53
2023-01-08T22:05:46.820Z,42.28
2023-01-08T22:10:50.267Z,42.37
2023-01-08T22:16:02.456Z,38.63
2023-01-08T22:21:09.608Z,35.92
2023-01-08T22:26:14.498Z,37.22
2023-01-08T22:31:18.369Z,33.83
2023-01-08T22:36:23.577Z,32.67
2023-01-08T22:41:27.067Z,36.70
2023-01-08T22:46:30.624Z,37.58
2023-01-08T22:51:36.162Z,35.93
2023-01-08T22:56:39.953Z,35.05
2023-01-08T23:01:43.424Z,33.17
2023-01-08T23:06:48.197Z,33.60
2023-01-08T23:11:51.506Z,33.03
2023-01-08T23:16:54.971Z,31.98
2023-01-08T23:21:59.856Z,29.83
2023-01-08T23:27:03.216Z,27.70
2023-01-08T23:32:06.873Z,31.03
2023-01-08T23:37:11.676Z,31.15
2023-01-08T23:42:15.537Z,32.50
2023-01-08T23:47:18.824Z,30.37
2023-01-08T23:52:23.531Z,25.20
2023-01-08T23:57:27.026Z,26.80
